createdAt,value
2022-09-30T00:01:53.669Z,336.00
2022-09-30T00:04:24.327Z,329.40
2022-09-30T00:06:53.521Z,331.90
2022-09-30T00:09:27.698Z,341.50
2022-09-30T00:11:58.082Z,332.90
2022-09-30T00:14:25.733Z,341.20
2022-09-30T00:16:59.841Z,336.42
2022-09-30T00:19:27.404Z,338.30
2022-09-30T00:21:54.947Z,338.40
2022-09-30T00:24:22.563Z,336.80
2022-09-30T00:26:49.914Z,345.70
2022-09-30T00:29:17.320Z,337.85
2022-09-30T00:31:44.998Z,343.20
2022-09-30T00:34:13.065Z,343.38
2022-09-30T00:36:46.336Z,360.08
2022-09-30T00:39:17.099Z,348.10
2022-09-30T00:41:48.179Z,344.58
2022-09-30T00:44:48.254Z,336.90
2022-09-30T00:47:25.056Z,328.58
2022-09-30T00:49:53.281Z,351.75
2022-09-30T00:52:20.728Z,345.70
2022-09-30T00:54:55.873Z,336.13
2022-09-30T00:57:23.275Z,351.25
2022-09-30T00:59:52.074Z,336.52
2022-09-30T01:02:20.447Z,347.67
2022-09-30T01:04:52.371Z,343.50
2022-09-30T01:07:20.895Z,351.42
2022-09-30T01:09:49.202Z,350.42
2022-09-30T01:12:23.085Z,346.27
2022-09-30T01:14:55.147Z,341.92
2022-09-30T01:17:49.568Z,336.67
2022-09-30T01:20:47.036Z,330.83
2022-09-30T01:23:53.002Z,330.63
2022-09-30T01:26:32.299Z,343.88
2022-09-30T01:29:27.299Z,334.30
2022-09-30T01:32:03.607Z,341.50
2022-09-30T01:35:05.006Z,347.98
2022-09-30T01:38:01.891Z,340.80
2022-09-30T01:41:00.774Z,332.50
2022-09-30T01:43:51.758Z,333.67
2022-09-30T01:46:53.452Z,336.77
2022-09-30T01:49:27.404Z,329.48
2022-09-30T01:52:20.983Z,338.75
2022-09-30T01:55:21.912Z,336.33
2022-09-30T01:58:06.511Z,318.15
2022-09-30T02:00:39.413Z,314.70
2022-09-30T02:03:16.252Z,318.00
2022-09-30T02:05:51.486Z,316.23
2022-09-30T02:08:25.122Z,312.45
2022-09-30T02:11:03.347Z,300.52
2022-09-30T02:14:00.602Z,296.58
2022-09-30T02:16:46.206Z,307.02
2022-09-30T02:19:32.056Z,311.77
2022-09-30T02:22:16.375Z,296.83
2022-09-30T02:24:46.241Z,311.95
2022-09-30T02:27:22.403Z,320.10
2022-09-30T02:29:55.965Z,308.50
2022-09-30T02:35:06.785Z,290.50
2022-09-30T02:37:44.637Z,315.60
2022-09-30T02:40:50.831Z,300.30
2022-09-30T02:43:20.806Z,309.05
2022-09-30T02:46:21.229Z,315.33
2022-09-30T02:48:55.947Z,307.65
2022-09-30T02:51:44.039Z,294.98
2022-09-30T02:54:55.416Z,288.65
2022-09-30T02:57:38.332Z,302.00
2022-09-30T03:00:12.479Z,285.42
2022-09-30T03:02:41.768Z,297.77
2022-09-30T03:05:10.354Z,293.45
2022-09-30T03:07:38.588Z,296.48
2022-09-30T03:10:16.641Z,291.98
2022-09-30T03:13:07.937Z,298.05
2022-09-30T03:16:03.274Z,305.77
2022-09-30T03:18:49.387Z,294.35
2022-09-30T03:21:40.318Z,298.73
2022-09-30T03:24:27.384Z,290.38
2022-09-30T03:26:58.928Z,293.70
2022-09-30T03:29:31.236Z,296.90
2022-09-30T03:32:17.616Z,288.75
2022-09-30T03:35:04.126Z,297.75
2022-09-30T03:37:49.768Z,278.25
2022-09-30T03:40:33.182Z,274.33
2022-09-30T03:43:12.855Z,275.63
2022-09-30T03:45:55.628Z,287.77
2022-09-30T03:48:24.714Z,272.30
2022-09-30T03:50:53.326Z,275.63
2022-09-30T03:53:21.269Z,275.25
2022-09-30T03:55:51.473Z,281.40
2022-09-30T03:58:22.265Z,280.30
2022-09-30T04:00:54.756Z,275.00
2022-09-30T04:03:23.560Z,269.45
2022-09-30T04:05:50.878Z,262.40
2022-09-30T04:08:18.295Z,268.35
2022-09-30T04:10:46.735Z,288.15
2022-09-30T04:13:15.311Z,274.75
2022-09-30T04:15:42.662Z,278.42
2022-09-30T04:18:09.970Z,284.80
2022-09-30T04:20:39.510Z,274.42
2022-09-30T04:23:07.312Z,272.92
2022-09-30T04:25:34.621Z,274.45
2022-09-30T04:28:04.600Z,268.33
2022-09-30T04:30:33.727Z,268.85
2022-09-30T04:33:01.349Z,267.10
2022-09-30T04:35:30.276Z,268.00
2022-09-30T04:37:57.745Z,253.07
2022-09-30T04:40:25.559Z,274.25
2022-09-30T04:42:58.331Z,276.30
2022-09-30T04:45:26.242Z,270.52
2022-09-30T04:47:53.976Z,268.15
2022-09-30T04:50:21.636Z,267.50
2022-09-30T04:52:50.902Z,268.60
2022-09-30T04:55:18.293Z,253.27
2022-09-30T04:57:46.039Z,266.42
2022-09-30T05:00:14.907Z,272.40
2022-09-30T05:02:44.926Z,269.95
2022-09-30T05:05:14.741Z,277.63
2022-09-30T05:07:42.174Z,274.23
2022-09-30T05:10:11.376Z,287.38
2022-09-30T05:12:46.638Z,287.17
2022-09-30T05:15:13.996Z,295.50
2022-09-30T05:17:41.422Z,288.00
2022-09-30T05:20:11.037Z,287.02
2022-09-30T05:22:38.689Z,285.35
2022-09-30T05:25:09.682Z,292.45
2022-09-30T05:27:37.588Z,284.58
2022-09-30T05:30:06.770Z,286.55
2022-09-30T05:32:34.138Z,281.42
2022-09-30T05:35:03.721Z,277.95
2022-09-30T05:37:31.616Z,280.58
2022-09-30T05:39:59.423Z,283.92
2022-09-30T05:42:26.778Z,287.10
2022-09-30T05:44:54.028Z,290.20
2022-09-30T05:47:21.505Z,284.80
2022-09-30T05:49:51.115Z,295.55
2022-09-30T05:52:22.772Z,300.70
2022-09-30T05:54:50.851Z,298.67
2022-09-30T05:57:18.350Z,286.90
2022-09-30T05:59:45.758Z,287.65
2022-09-30T06:02:15.529Z,290.48
2022-09-30T06:04:42.863Z,299.17
2022-09-30T06:07:10.747Z,293.23
2022-09-30T06:09:38.609Z,305.77
2022-09-30T06:12:07.060Z,295.27
2022-09-30T06:14:34.613Z,297.55
2022-09-30T06:17:05.378Z,296.02
2022-09-30T06:19:33.079Z,299.77
2022-09-30T06:22:00.689Z,303.45
2022-09-30T06:24:28.103Z,319.77
2022-09-30T06:26:55.422Z,313.65
2022-09-30T06:29:22.820Z,311.38
2022-09-30T06:31:50.175Z,327.88
2022-09-30T06:34:17.591Z,314.73
2022-09-30T06:36:44.812Z,314.45
2022-09-30T06:39:13.765Z,317.15
2022-09-30T06:41:44.200Z,317.08
2022-09-30T06:44:22.247Z,329.17
2022-09-30T06:46:53.934Z,333.52
2022-09-30T06:49:22.201Z,338.15
2022-09-30T06:51:51.545Z,336.05
2022-09-30T06:54:22.756Z,250.60
2022-09-30T06:56:52.683Z,309.08
2022-09-30T06:59:19.948Z,318.75
2022-09-30T07:01:47.562Z,344.48
2022-09-30T07:04:15.192Z,347.65
2022-09-30T07:06:45.699Z,345.30
2022-09-30T07:09:13.614Z,352.63
2022-09-30T07:11:41.382Z,363.15
2022-09-30T07:14:13.544Z,350.63
2022-09-30T07:16:40.995Z,345.40
2022-09-30T07:19:10.337Z,349.23
2022-09-30T07:21:38.031Z,344.75
2022-09-30T07:24:05.794Z,364.15
2022-09-30T07:26:33.756Z,362.08
2022-09-30T07:29:02.227Z,378.52
2022-09-30T07:31:34.632Z,383.58
2022-09-30T07:34:07.853Z,385.05
2022-09-30T07:36:37.998Z,387.07
2022-09-30T07:39:09.927Z,368.20
2022-09-30T07:41:44.413Z,380.48
2022-09-30T07:44:14.863Z,384.13
2022-09-30T07:46:45.418Z,378.33
2022-09-30T07:49:20.964Z,377.10
2022-09-30T07:51:48.377Z,384.52
2022-09-30T07:54:18.315Z,381.33
2022-09-30T07:59:37.813Z,395.05
2022-09-30T08:02:07.096Z,405.02
2022-09-30T08:04:36.573Z,413.02
2022-09-30T08:07:06.704Z,406.90
2022-09-30T08:09:35.124Z,433.85
2022-09-30T08:12:04.550Z,427.25
2022-09-30T08:14:32.551Z,429.88
2022-09-30T08:17:00.766Z,438.30
2022-09-30T08:19:30.610Z,452.30
2022-09-30T08:21:58.724Z,466.50
2022-09-30T08:24:27.090Z,503.10
2022-09-30T08:26:55.681Z,514.90
2022-09-30T08:32:13.674Z,590.80
2022-09-30T08:34:41.025Z,637.95
2022-09-30T08:37:10.347Z,643.05
2022-09-30T08:39:39.058Z,667.47
2022-09-30T08:42:36.040Z,687.47
2022-09-30T08:45:34.529Z,691.63
2022-09-30T08:48:20.633Z,700.47
2022-09-30T08:51:13.444Z,679.90
2022-09-30T08:53:44.010Z,677.70
2022-09-30T08:56:24.048Z,697.78
2022-09-30T08:58:57.293Z,703.92
2022-09-30T09:01:30.344Z,701.88
2022-09-30T09:03:59.539Z,714.45
2022-09-30T09:06:50.556Z,777.47
2022-09-30T09:09:38.891Z,816.88
2022-09-30T09:12:44.165Z,813.63
2022-09-30T09:15:36.706Z,828.05
2022-09-30T09:18:25.230Z,854.03
2022-09-30T09:20:58.365Z,842.42
2022-09-30T09:23:28.658Z,840.58
2022-09-30T09:25:56.126Z,819.13
2022-09-30T09:29:01.498Z,800.47
2022-09-30T09:31:28.994Z,742.88
2022-09-30T09:34:07.820Z,738.65
2022-09-30T09:37:46.284Z,701.33
2022-09-30T09:40:36.120Z,641.22
2022-09-30T09:43:16.644Z,624.83
2022-09-30T09:46:09.698Z,622.70
2022-09-30T09:48:37.403Z,589.80
2022-09-30T09:51:24.694Z,586.90
2022-09-30T09:53:58.345Z,566.78
2022-09-30T09:56:35.059Z,564.90
2022-09-30T09:59:19.992Z,578.13
2022-09-30T10:01:53.068Z,562.03
2022-09-30T10:04:30.491Z,593.42
2022-09-30T10:07:00.895Z,591.63
2022-09-30T10:09:35.687Z,576.15
2022-09-30T10:12:06.055Z,569.45
2022-09-30T10:14:35.902Z,597.05
2022-09-30T10:17:05.998Z,590.83
2022-09-30T10:19:35.102Z,610.22
2022-09-30T10:22:12.126Z,622.83
2022-09-30T10:24:40.370Z,611.08
2022-09-30T10:27:52.053Z,607.08
2022-09-30T10:30:55.970Z,621.22
2022-09-30T10:33:29.077Z,627.75
2022-09-30T10:36:14.948Z,613.75
2022-09-30T10:39:24.954Z,600.95
2022-09-30T10:42:08.983Z,605.50
2022-09-30T10:44:47.787Z,625.65
2022-09-30T10:47:19.759Z,687.38
2022-09-30T10:50:10.390Z,759.88
2022-09-30T10:52:53.552Z,836.95
2022-09-30T10:55:20.967Z,871.50
2022-09-30T10:57:50.663Z,857.30
2022-09-30T11:00:27.995Z,859.00
2022-09-30T11:03:17.615Z,888.35
2022-09-30T11:05:46.852Z,931.70
2022-09-30T11:08:22.819Z,950.92
2022-09-30T11:11:14.375Z,939.22
2022-09-30T11:13:57.166Z,928.70
2022-09-30T11:16:47.070Z,955.23
2022-09-30T11:19:27.119Z,978.40
2022-09-30T11:21:57.245Z,999.20
2022-09-30T11:24:36.982Z,999.90
2022-09-30T11:27:25.233Z,999.90
2022-09-30T11:30:28.086Z,999.90
2022-09-30T11:33:10.731Z,999.90
2022-09-30T11:35:57.644Z,999.90
2022-09-30T11:39:01.903Z,973.47
2022-09-30T11:44:35.506Z,948.50
2022-09-30T11:47:21.999Z,959.28
2022-09-30T11:50:07.572Z,946.67
2022-09-30T11:52:59.797Z,932.53
2022-09-30T11:56:26.093Z,667.63
2022-09-30T11:58:58.670Z,801.85
2022-09-30T12:01:50.217Z,859.42
2022-09-30T12:04:29.540Z,929.55
2022-09-30T12:07:01.734Z,904.10
2022-09-30T12:09:53.921Z,919.17
2022-09-30T12:12:21.366Z,922.70
2022-09-30T12:15:05.975Z,957.05
2022-09-30T12:17:46.797Z,568.58
2022-09-30T12:20:34.947Z,357.35
2022-09-30T12:23:21.205Z,506.55
2022-09-30T12:26:06.935Z,528.80
2022-09-30T12:28:53.061Z,464.25
2022-09-30T12:31:48.384Z,517.83
2022-09-30T12:35:01.569Z,450.60
2022-09-30T12:38:02.568Z,436.00
2022-09-30T12:40:52.327Z,426.13
2022-09-30T12:43:51.499Z,179.88
2022-09-30T12:46:30.597Z,293.58
2022-09-30T12:49:03.946Z,401.95
2022-09-30T12:51:37.704Z,432.67
2022-09-30T12:54:16.688Z,433.75
2022-09-30T12:56:47.190Z,454.63
2022-09-30T12:59:15.588Z,449.98
2022-09-30T13:01:43.278Z,442.88
2022-09-30T13:04:18.346Z,439.20
2022-09-30T13:06:45.635Z,434.17
2022-09-30T13:09:30.115Z,419.15
2022-09-30T13:12:00.387Z,446.80
2022-09-30T13:14:35.243Z,431.88
2022-09-30T13:17:08.526Z,475.75
2022-09-30T13:19:42.836Z,466.60
2022-09-30T13:22:19.204Z,465.10
2022-09-30T13:25:03.301Z,460.88
2022-09-30T13:27:36.720Z,424.13
2022-09-30T13:32:51.641Z,444.23
2022-09-30T13:35:51.066Z,435.90
2022-09-30T13:38:24.523Z,198.50
2022-09-30T13:41:03.005Z,190.38
2022-09-30T13:43:42.827Z,195.48
2022-09-30T13:46:37.277Z,189.38
2022-09-30T13:49:33.551Z,161.75
2022-09-30T13:52:02.678Z,155.52
2022-09-30T13:54:37.854Z,166.77
2022-09-30T13:57:07.614Z,162.55
2022-09-30T13:59:51.079Z,176.38
2022-09-30T14:02:55.175Z,322.98
2022-09-30T14:05:51.059Z,326.85
2022-09-30T14:08:29.354Z,371.77
2022-09-30T14:11:22.582Z,353.88
2022-09-30T14:14:07.442Z,346.52
2022-09-30T14:16:47.603Z,189.77
2022-09-30T14:19:22.481Z,209.65
2022-09-30T14:21:58.832Z,190.85
2022-09-30T14:24:31.784Z,175.90
2022-09-30T14:27:09.881Z,181.73
2022-09-30T14:29:55.050Z,173.98
2022-09-30T14:32:46.393Z,138.32
2022-09-30T14:35:37.453Z,132.40
2022-09-30T14:38:29.659Z,146.48
2022-09-30T14:41:09.330Z,133.00
2022-09-30T14:43:43.062Z,132.02
2022-09-30T14:46:35.419Z,116.25
2022-09-30T14:49:08.553Z,120.85
2022-09-30T14:51:47.281Z,118.25
2022-09-30T14:54:22.819Z,123.03
2022-09-30T14:56:51.186Z,127.15
2022-09-30T14:59:27.816Z,112.28
2022-09-30T15:02:23.363Z,141.85
2022-09-30T15:05:00.451Z,138.13
2022-09-30T15:07:28.733Z,135.23
2022-09-30T15:10:01.871Z,123.60
2022-09-30T15:12:31.738Z,130.80
2022-09-30T15:15:00.640Z,122.47
2022-09-30T15:17:37.220Z,110.70
2022-09-30T15:20:24.576Z,118.78
2022-09-30T15:22:53.633Z,110.90
2022-09-30T15:25:22.132Z,110.50
2022-09-30T15:27:50.501Z,120.03
2022-09-30T15:30:18.474Z,110.80
2022-09-30T15:32:50.262Z,112.53
2022-09-30T15:37:52.512Z,109.05
2022-09-30T15:40:40.993Z,104.47
2022-09-30T15:43:11.972Z,106.20
2022-09-30T15:45:43.607Z,98.68
2022-09-30T15:48:13.769Z,105.45
2022-09-30T15:50:49.347Z,107.60
2022-09-30T15:53:25.352Z,106.40
2022-09-30T15:55:55.990Z,101.60
2022-09-30T15:58:35.156Z,102.63
2022-09-30T16:01:25.145Z,107.85
2022-09-30T16:04:00.873Z,101.82
2022-09-30T16:06:35.323Z,105.18
2022-09-30T16:09:08.646Z,96.00
2022-09-30T16:11:42.414Z,70.35
2022-09-30T16:14:27.654Z,97.22
2022-09-30T16:16:58.681Z,92.80
2022-09-30T16:19:35.111Z,91.57
2022-09-30T16:22:05.519Z,89.47
2022-09-30T16:24:32.902Z,88.07
2022-09-30T16:27:19.864Z,91.35
2022-09-30T16:29:47.584Z,94.65
2022-09-30T16:32:17.288Z,89.28
2022-09-30T16:34:44.698Z,89.97
2022-09-30T16:37:14.163Z,89.68
2022-09-30T16:39:41.821Z,90.70
2022-09-30T16:42:16.974Z,96.28
2022-09-30T16:44:45.478Z,105.97
2022-09-30T16:47:17.878Z,103.68
2022-09-30T16:49:48.464Z,76.67
2022-09-30T16:52:17.624Z,92.70
2022-09-30T16:54:45.529Z,93.05
2022-09-30T16:57:14.382Z,100.03
2022-09-30T16:59:41.675Z,102.32
2022-09-30T17:02:14.159Z,96.38
2022-09-30T17:04:41.629Z,95.17
2022-09-30T17:07:14.520Z,91.63
2022-09-30T17:09:43.166Z,74.43
2022-09-30T17:12:13.681Z,97.78
2022-09-30T17:14:43.867Z,96.93
2022-09-30T17:17:14.202Z,91.38
2022-09-30T17:19:41.650Z,95.03
2022-09-30T17:22:09.160Z,93.38
2022-09-30T17:24:36.431Z,94.65
2022-09-30T17:27:03.931Z,90.10
2022-09-30T17:29:38.862Z,94.05
2022-09-30T17:32:09.340Z,92.22
2022-09-30T17:34:36.611Z,92.03
2022-09-30T17:37:04.048Z,87.57
2022-09-30T17:39:31.391Z,89.35
2022-09-30T17:42:16.862Z,88.32
2022-09-30T17:44:45.444Z,87.80
2022-09-30T17:47:12.826Z,88.05
2022-09-30T17:49:40.458Z,90.00
2022-09-30T17:52:07.831Z,88.72
2022-09-30T17:54:36.044Z,86.40
2022-09-30T17:57:03.762Z,89.47
2022-09-30T17:59:31.230Z,86.43
2022-09-30T18:01:58.705Z,89.38
2022-09-30T18:04:26.990Z,88.78
2022-09-30T18:06:57.904Z,88.57
2022-09-30T18:09:25.398Z,87.13
2022-09-30T18:11:53.569Z,92.07
2022-09-30T18:14:21.094Z,90.43
2022-09-30T18:16:48.502Z,89.68
2022-09-30T18:19:18.834Z,92.78
2022-09-30T18:21:46.637Z,90.85
2022-09-30T18:24:14.024Z,88.80
2022-09-30T18:26:41.481Z,90.05
2022-09-30T18:29:09.012Z,88.95
2022-09-30T18:31:37.768Z,93.18
2022-09-30T18:34:06.572Z,88.65
2022-09-30T18:36:34.118Z,89.38
2022-09-30T18:39:02.765Z,88.80
2022-09-30T18:41:31.877Z,88.60
2022-09-30T18:44:03.055Z,87.05
2022-09-30T18:46:31.879Z,86.30
2022-09-30T18:48:59.340Z,89.47
2022-09-30T18:51:26.787Z,88.97
2022-09-30T18:53:59.258Z,86.65
2022-09-30T18:56:32.285Z,62.58
2022-09-30T19:01:40.286Z,65.50
2022-09-30T19:04:07.813Z,85.60
2022-09-30T19:06:37.571Z,85.15
2022-09-30T19:09:06.742Z,85.80
2022-09-30T19:11:35.368Z,86.47
2022-09-30T19:14:05.916Z,86.75
2022-09-30T19:16:38.520Z,83.70
2022-09-30T19:19:10.976Z,63.83
2022-09-30T19:21:39.612Z,88.25
2022-09-30T19:24:09.117Z,88.07
2022-09-30T19:26:40.425Z,83.45
2022-09-30T19:29:09.797Z,82.70
2022-09-30T19:31:37.827Z,82.45
2022-09-30T19:34:18.991Z,65.22
2022-09-30T19:36:52.046Z,82.28
2022-09-30T19:39:20.032Z,84.25
2022-09-30T19:41:48.048Z,60.28
2022-09-30T19:44:19.210Z,84.90
2022-09-30T19:46:52.659Z,83.72
2022-09-30T19:51:55.221Z,61.15
2022-09-30T19:54:37.715Z,85.75
2022-09-30T19:57:09.742Z,82.03
2022-09-30T19:59:37.087Z,81.90
2022-09-30T20:02:04.672Z,83.35
2022-09-30T20:04:34.443Z,84.55
2022-09-30T20:07:02.399Z,80.47
2022-09-30T20:09:32.728Z,85.35
2022-09-30T20:12:00.271Z,83.43
2022-09-30T20:14:45.979Z,83.63
2022-09-30T20:17:15.751Z,83.15
2022-09-30T20:19:43.151Z,82.50
2022-09-30T20:22:10.700Z,84.22
2022-09-30T20:24:40.607Z,82.00
2022-09-30T20:27:08.371Z,83.32
2022-09-30T20:29:35.659Z,85.43
2022-09-30T20:32:03.856Z,85.47
2022-09-30T20:34:34.452Z,83.70
2022-09-30T20:37:04.179Z,63.03
2022-09-30T20:39:31.573Z,83.60
2022-09-30T20:41:59.851Z,82.90
2022-09-30T20:44:27.204Z,83.40
2022-09-30T20:46:54.640Z,84.40
2022-09-30T20:49:22.047Z,86.07
2022-09-30T20:51:49.954Z,81.97
2022-09-30T20:54:17.387Z,84.47
2022-09-30T20:57:06.804Z,82.63
2022-09-30T20:59:35.617Z,83.88
2022-09-30T21:02:03.052Z,83.32
2022-09-30T21:04:30.545Z,83.60
2022-09-30T21:07:00.135Z,85.93
2022-09-30T21:09:27.569Z,81.82
2022-09-30T21:11:54.880Z,83.88
2022-09-30T21:14:22.356Z,83.07
2022-09-30T21:16:49.782Z,81.85
2022-09-30T21:19:18.891Z,84.90
2022-09-30T21:21:46.853Z,84.68
2022-09-30T21:24:16.502Z,83.93
2022-09-30T21:26:43.841Z,82.15
2022-09-30T21:29:11.211Z,84.50
2022-09-30T21:31:39.128Z,69.70
2022-09-30T21:34:06.583Z,81.80
2022-09-30T21:36:33.989Z,83.15
2022-09-30T21:39:04.923Z,84.90
2022-09-30T21:41:33.988Z,82.40
2022-09-30T21:44:03.707Z,86.28
2022-09-30T21:46:31.532Z,84.95
2022-09-30T21:49:24.917Z,83.95
2022-09-30T21:51:55.873Z,63.10
2022-09-30T21:54:23.531Z,84.47
2022-09-30T21:56:51.653Z,83.55
2022-09-30T21:59:19.590Z,83.90
2022-09-30T22:01:52.280Z,82.38
2022-09-30T22:04:21.991Z,61.35
2022-09-30T22:06:52.319Z,83.07
2022-09-30T22:09:19.760Z,84.60
2022-09-30T22:11:48.234Z,83.88
2022-09-30T22:14:16.102Z,85.00
2022-09-30T22:16:44.593Z,83.90
2022-09-30T22:19:12.607Z,84.32
2022-09-30T22:21:40.264Z,82.93
2022-09-30T22:24:09.515Z,84.15
2022-09-30T22:26:38.067Z,84.30
2022-09-30T22:29:11.462Z,82.70
2022-09-30T22:31:39.642Z,84.40
2022-09-30T22:34:32.821Z,87.18
2022-09-30T22:37:18.611Z,32.20
2022-09-30T22:39:46.055Z,83.78
2022-09-30T22:42:13.504Z,83.60
2022-09-30T22:44:40.964Z,84.18
2022-09-30T22:47:11.434Z,85.22
2022-09-30T22:49:38.983Z,86.57
2022-09-30T22:52:06.904Z,85.78
2022-09-30T22:54:36.162Z,88.30
2022-09-30T22:57:04.655Z,86.72
2022-09-30T22:59:32.444Z,86.45
2022-09-30T23:01:59.942Z,84.03
2022-09-30T23:04:27.812Z,85.68
2022-09-30T23:06:55.857Z,88.35
2022-09-30T23:09:23.758Z,86.20
2022-09-30T23:11:55.398Z,85.88
2022-09-30T23:14:24.909Z,86.25
2022-09-30T23:16:52.383Z,86.18
2022-09-30T23:19:20.318Z,86.05
2022-09-30T23:21:48.039Z,85.60
2022-09-30T23:24:15.817Z,83.90
2022-09-30T23:26:43.744Z,84.10
2022-09-30T23:29:15.094Z,83.45
2022-09-30T23:31:42.720Z,82.32
2022-09-30T23:34:10.291Z,85.35
2022-09-30T23:36:38.389Z,84.15
2022-09-30T23:39:13.360Z,88.00
2022-09-30T23:41:41.257Z,83.80
2022-09-30T23:44:10.192Z,84.22
2022-09-30T23:46:37.628Z,85.43
2022-09-30T23:49:05.037Z,82.93
2022-09-30T23:51:34.411Z,84.57
2022-09-30T23:54:04.429Z,84.05
2022-09-30T23:56:33.089Z,84.07
2022-09-30T23:59:03.467Z,84.63
